sensor_id;sensor_type;location;lat;lon;timestamp;pressure;altitude;pressure_sealevel;temperature;humidity
8699;BME280;4386;51.236;6.742;2022-08-02T00:00:57;101463.50;;;20.86;65.61
8699;BME280;4386;51.236;6.742;2022-08-02T00:02:00;101460.94;;;20.85;65.39
8699;BME280;4386;51.236;6.742;2022-08-02T00:03:05;101460.13;;;20.84;65.49
8699;BME280;4386;51.236;6.742;2022-08-02T00:04:07;101460.94;;;20.85;65.67
8699;BME280;4386;51.236;6.742;2022-08-02T00:05:10;101465.53;;;20.84;65.63
8699;BME280;4386;51.236;6.742;2022-08-02T00:06:12;101458.44;;;20.83;65.06
8699;BME280;4386;51.236;6.742;2022-08-02T00:07:14;101459.44;;;20.82;65.20
8699;BME280;4386;51.236;6.742;2022-08-02T00:08:16;101470.22;;;20.82;65.33
8699;BME280;4386;51.236;6.742;2022-08-02T00:09:19;101462.13;;;20.82;64.92
8699;BME280;4386;51.236;6.742;2022-08-02T00:10:21;101458.78;;;20.80;64.66
8699;BME280;4386;51.236;6.742;2022-08-02T00:11:24;101451.69;;;20.79;65.03
8699;BME280;4386;51.236;6.742;2022-08-02T00:12:26;101460.44;;;20.81;64.88
8699;BME280;4386;51.236;6.742;2022-08-02T00:13:28;101463.31;;;20.79;64.83
8699;BME280;4386;51.236;6.742;2022-08-02T00:14:30;101462.47;;;20.79;64.95
8699;BME280;4386;51.236;6.742;2022-08-02T00:15:33;101457.28;;;20.77;64.80
8699;BME280;4386;51.236;6.742;2022-08-02T00:16:36;101459.13;;;20.77;65.05
8699;BME280;4386;51.236;6.742;2022-08-02T00:17:39;101452.03;;;20.76;64.76
8699;BME280;4386;51.236;6.742;2022-08-02T00:18:41;101453.03;;;20.75;65.03
8699;BME280;4386;51.236;6.742;2022-08-02T00:19:44;101451.38;;;20.74;64.86
8699;BME280;4386;51.236;6.742;2022-08-02T00:20:46;101448.69;;;20.74;64.51
8699;BME280;4386;51.236;6.742;2022-08-02T00:21:48;101451.38;;;20.74;64.39
8699;BME280;4386;51.236;6.742;2022-08-02T00:22:50;101446.13;;;20.72;64.64
8699;BME280;4386;51.236;6.742;2022-08-02T00:23:53;101452.38;;;20.73;64.67
8699;BME280;4386;51.236;6.742;2022-08-02T00:25:15;101449.84;;;20.71;64.58
8699;BME280;4386;51.236;6.742;2022-08-02T00:26:17;101447.31;;;20.70;64.44
8699;BME280;4386;51.236;6.742;2022-08-02T00:27:19;101454.56;;;20.69;64.81
8699;BME280;4386;51.236;6.742;2022-08-02T00:28:22;101454.41;;;20.71;65.10
8699;BME280;4386;51.236;6.742;2022-08-02T00:29:28;101449.00;;;20.71;64.91
8699;BME280;4386;51.236;6.742;2022-08-02T00:30:31;101450.00;;;20.70;64.92
8699;BME280;4386;51.236;6.742;2022-08-02T00:31:33;101452.72;;;20.70;64.88
8699;BME280;4386;51.236;6.742;2022-08-02T00:32:36;101450.00;;;20.70;64.57
8699;BME280;4386;51.236;6.742;2022-08-02T00:33:41;101454.41;;;20.71;65.03
8699;BME280;4386;51.236;6.742;2022-08-02T00:35:05;101450.00;;;20.70;64.75
8699;BME280;4386;51.236;6.742;2022-08-02T00:36:08;101441.94;;;20.70;64.43
8699;BME280;4386;51.236;6.742;2022-08-02T00:37:09;101454.41;;;20.71;64.76
8699;BME280;4386;51.236;6.742;2022-08-02T00:38:12;101444.63;;;20.70;64.84
8699;BME280;4386;51.236;6.742;2022-08-02T00:39:14;101448.16;;;20.70;64.59
8699;BME280;4386;51.236;6.742;2022-08-02T00:40:36;101441.94;;;20.70;64.82
8699;BME280;4386;51.236;6.742;2022-08-02T00:41:44;101445.63;;;20.69;64.75
8699;BME280;4386;51.236;6.742;2022-08-02T00:42:59;101442.28;;;20.67;64.96
8699;BME280;4386;51.236;6.742;2022-08-02T00:44:02;101436.88;;;20.67;64.76
8699;BME280;4386;51.236;6.742;2022-08-02T00:45:05;101433.50;;;20.65;64.85
8699;BME280;4386;51.236;6.742;2022-08-02T00:46:08;101436.19;;;20.65;65.19
8699;BME280;4386;51.236;6.742;2022-08-02T00:47:09;101438.88;;;20.65;65.42
8699;BME280;4386;51.236;6.742;2022-08-02T00:48:21;101435.53;;;20.63;65.16
8699;BME280;4386;51.236;6.742;2022-08-02T00:49:23;101429.13;;;20.64;65.43
8699;BME280;4386;51.236;6.742;2022-08-02T00:50:29;101431.00;;;20.63;65.11
8699;BME280;4386;51.236;6.742;2022-08-02T00:51:32;101437.22;;;20.64;65.15
8699;BME280;4386;51.236;6.742;2022-08-02T00:52:34;101435.38;;;20.64;65.55
8699;BME280;4386;51.236;6.742;2022-08-02T00:53:37;101437.22;;;20.64;65.48
8699;BME280;4386;51.236;6.742;2022-08-02T00:54:39;101433.50;;;20.65;65.12
8699;BME280;4386;51.236;6.742;2022-08-02T00:55:41;101436.38;;;20.63;65.19
8699;BME280;4386;51.236;6.742;2022-08-02T00:56:43;101431.84;;;20.64;65.45
8699;BME280;4386;51.236;6.742;2022-08-02T00:57:51;101438.06;;;20.64;65.61
8699;BME280;4386;51.236;6.742;2022-08-02T00:58:53;101438.22;;;20.63;65.16
8699;BME280;4386;51.236;6.742;2022-08-02T00:59:56;101438.22;;;20.63;65.54
8699;BME280;4386;51.236;6.742;2022-08-02T01:00:58;101435.53;;;20.63;65.60
8699;BME280;4386;51.236;6.742;2022-08-02T01:02:02;101432.16;;;20.61;65.34
8699;BME280;4386;51.236;6.742;2022-08-02T01:03:04;101440.06;;;20.62;65.54
8699;BME280;4386;51.236;6.742;2022-08-02T01:04:10;101436.53;;;20.62;65.86
8699;BME280;4386;51.236;6.742;2022-08-02T01:05:12;101433.03;;;20.61;65.59
8699;BME280;4386;51.236;6.742;2022-08-02T01:06:15;101440.25;;;20.61;65.64
8699;BME280;4386;51.236;6.742;2022-08-02T01:07:18;101440.25;;;20.61;65.46
8699;BME280;4386;51.236;6.742;2022-08-02T01:08:19;101437.56;;;20.61;65.78
8699;BME280;4386;51.236;6.742;2022-08-02T01:09:30;101434.88;;;20.61;65.54
8699;BME280;4386;51.236;6.742;2022-08-02T01:10:32;101444.78;;;20.60;65.97
8699;BME280;4386;51.236;6.742;2022-08-02T01:11:35;101443.94;;;20.60;65.64
8699;BME280;4386;51.236;6.742;2022-08-02T01:12:37;101435.88;;;20.60;65.98
8699;BME280;4386;51.236;6.742;2022-08-02T01:13:39;101439.56;;;20.59;65.49
8699;BME280;4386;51.236;6.742;2022-08-02T01:14:43;101440.59;;;20.58;65.62
8699;BME280;4386;51.236;6.742;2022-08-02T01:15:59;101441.59;;;20.57;65.75
8699;BME280;4386;51.236;6.742;2022-08-02T01:17:07;101440.75;;;20.56;65.66
8699;BME280;4386;51.236;6.742;2022-08-02T01:18:14;101443.63;;;20.55;66.21
8699;BME280;4386;51.236;6.742;2022-08-02T01:19:32;101436.53;;;20.54;66.02
8699;BME280;4386;51.236;6.742;2022-08-02T01:20:48;101434.84;;;20.53;65.93
8699;BME280;4386;51.236;6.742;2022-08-02T01:22:15;101434.19;;;20.51;65.78
8699;BME280;4386;51.236;6.742;2022-08-02T01:24:13;101428.78;;;20.51;66.15
8699;BME280;4386;51.236;6.742;2022-08-02T01:25:38;101434.31;;;20.49;65.94
8699;BME280;4386;51.236;6.742;2022-08-02T01:26:49;101430.78;;;20.49;66.06
8699;BME280;4386;51.236;6.742;2022-08-02T01:28:11;101421.03;;;20.48;65.97
8699;BME280;4386;51.236;6.742;2022-08-02T01:29:24;101418.34;;;20.48;66.10
8699;BME280;4386;51.236;6.742;2022-08-02T01:30:28;101420.34;;;20.46;66.59
8699;BME280;4386;51.236;6.742;2022-08-02T01:31:35;101423.03;;;20.46;66.58
8699;BME280;4386;51.236;6.742;2022-08-02T01:32:42;101418.69;;;20.45;66.57
8699;BME280;4386;51.236;6.742;2022-08-02T01:33:52;101417.00;;;20.44;66.04
8699;BME280;4386;51.236;6.742;2022-08-02T01:35:00;101408.91;;;20.44;66.52
8699;BME280;4386;51.236;6.742;2022-08-02T01:36:08;101405.22;;;20.45;66.62
8699;BME280;4386;51.236;6.742;2022-08-02T01:37:15;101414.31;;;20.44;66.48
8699;BME280;4386;51.236;6.742;2022-08-02T01:38:23;101407.22;;;20.43;66.28
8699;BME280;4386;51.236;6.742;2022-08-02T01:39:28;101414.63;;;20.41;66.36
8699;BME280;4386;51.236;6.742;2022-08-02T01:40:35;101420.03;;;20.41;66.67
8699;BME280;4386;51.236;6.742;2022-08-02T01:41:40;101417.47;;;20.39;66.68
8699;BME280;4386;51.236;6.742;2022-08-02T01:42:48;101423.72;;;20.40;67.14
8699;BME280;4386;51.236;6.742;2022-08-02T01:43:56;101416.63;;;20.39;66.66
8699;BME280;4386;51.236;6.742;2022-08-02T01:45:00;101423.06;;;20.38;67.11
8699;BME280;4386;51.236;6.742;2022-08-02T01:46:05;101419.50;;;20.37;66.77
8699;BME280;4386;51.236;6.742;2022-08-02T01:47:14;101413.28;;;20.37;67.00
8699;BME280;4386;51.236;6.742;2022-08-02T01:48:19;101420.50;;;20.36;66.84
8699;BME280;4386;51.236;6.742;2022-08-02T01:49:23;101415.97;;;20.37;66.84
8699;BME280;4386;51.236;6.742;2022-08-02T01:50:30;101415.97;;;20.37;66.85
8699;BME280;4386;51.236;6.742;2022-08-02T01:51:35;101422.34;;;20.36;66.99
8699;BME280;4386;51.236;6.742;2022-08-02T01:52:57;101416.31;;;20.34;66.86
8699;BME280;4386;51.236;6.742;2022-08-02T01:54:01;101413.59;;;20.34;67.14
8699;BME280;4386;51.236;6.742;2022-08-02T01:55:07;101412.94;;;20.32;67.44
8699;BME280;4386;51.236;6.742;2022-08-02T01:56:19;101407.72;;;20.30;67.41
8699;BME280;4386;51.236;6.742;2022-08-02T01:57:23;101407.91;;;20.29;67.17
8699;BME280;4386;51.236;6.742;2022-08-02T01:58:30;101408.91;;;20.27;67.63
8699;BME280;4386;51.236;6.742;2022-08-02T01:59:34;101412.59;;;20.26;67.60
8699;BME280;4386;51.236;6.742;2022-08-02T02:00:39;101415.44;;;20.25;67.59
8699;BME280;4386;51.236;6.742;2022-08-02T02:01:42;101409.88;;;20.26;67.60
8699;BME280;4386;51.236;6.742;2022-08-02T02:02:48;101410.84;;;20.25;67.73
8699;BME280;4386;51.236;6.742;2022-08-02T02:03:51;101410.84;;;20.25;67.33
8699;BME280;4386;51.236;6.742;2022-08-02T02:04:54;101414.56;;;20.24;67.87
8699;BME280;4386;51.236;6.742;2022-08-02T02:06:00;101408.34;;;20.24;67.67
8699;BME280;4386;51.236;6.742;2022-08-02T02:07:03;101412.03;;;20.23;67.85
8699;BME280;4386;51.236;6.742;2022-08-02T02:08:09;101407.84;;;20.20;68.02
8699;BME280;4386;51.236;6.742;2022-08-02T02:09:13;101406.13;;;20.19;67.97
8699;BME280;4386;51.236;6.742;2022-08-02T02:10:20;101406.13;;;20.19;68.07
8699;BME280;4386;51.236;6.742;2022-08-02T02:11:22;101402.78;;;20.17;67.98
8699;BME280;4386;51.236;6.742;2022-08-02T02:12:47;101403.97;;;20.15;67.88
8699;BME280;4386;51.236;6.742;2022-08-02T02:13:49;101406.81;;;20.13;67.91
8699;BME280;4386;51.236;6.742;2022-08-02T02:14:55;101409.69;;;20.12;68.20
8699;BME280;4386;51.236;6.742;2022-08-02T02:16:00;101409.81;;;20.10;68.11
8699;BME280;4386;51.236;6.742;2022-08-02T02:17:05;101403.78;;;20.08;67.99
8699;BME280;4386;51.236;6.742;2022-08-02T02:18:28;101400.38;;;20.06;68.41
8699;BME280;4386;51.236;6.742;2022-08-02T02:19:33;101401.22;;;20.07;68.26
8699;BME280;4386;51.236;6.742;2022-08-02T02:20:36;101410.31;;;20.06;68.54
8699;BME280;4386;51.236;6.742;2022-08-02T02:21:38;101398.72;;;20.05;68.75
8699;BME280;4386;51.236;6.742;2022-08-02T02:22:42;101404.09;;;20.05;68.42
8699;BME280;4386;51.236;6.742;2022-08-02T02:23:48;101404.09;;;20.05;68.74
8699;BME280;4386;51.236;6.742;2022-08-02T02:24:51;101399.06;;;20.02;68.89
8699;BME280;4386;51.236;6.742;2022-08-02T02:25:56;101400.91;;;20.02;68.66
8699;BME280;4386;51.236;6.742;2022-08-02T02:26:59;101399.34;;;19.99;68.58
8699;BME280;4386;51.236;6.742;2022-08-02T02:28:06;101401.06;;;20.00;68.49
8699;BME280;4386;51.236;6.742;2022-08-02T02:29:09;101404.75;;;19.99;69.01
8699;BME280;4386;51.236;6.742;2022-08-02T02:30:15;101403.06;;;19.98;68.65
8699;BME280;4386;51.236;6.742;2022-08-02T02:31:18;101412.16;;;19.97;68.77
8699;BME280;4386;51.236;6.742;2022-08-02T02:32:23;101405.91;;;19.97;68.95
8699;BME280;4386;51.236;6.742;2022-08-02T02:33:30;101405.06;;;19.96;68.93
8699;BME280;4386;51.236;6.742;2022-08-02T02:34:36;101403.41;;;19.95;68.96
8699;BME280;4386;51.236;6.742;2022-08-02T02:35:41;101408.94;;;19.94;69.01
8699;BME280;4386;51.236;6.742;2022-08-02T02:36:47;101404.41;;;19.94;69.52
8699;BME280;4386;51.236;6.742;2022-08-02T02:37:51;101397.31;;;19.93;69.30
8699;BME280;4386;51.236;6.742;2022-08-02T02:39:00;101396.66;;;19.91;69.42
8699;BME280;4386;51.236;6.742;2022-08-02T02:40:04;101411.81;;;19.92;69.35
8699;BME280;4386;51.236;6.742;2022-08-02T02:41:08;101402.88;;;19.92;69.63
8699;BME280;4386;51.236;6.742;2022-08-02T02:42:13;101393.97;;;19.91;69.69
8699;BME280;4386;51.236;6.742;2022-08-02T02:43:17;101396.97;;;19.88;69.78
8699;BME280;4386;51.236;6.742;2022-08-02T02:44:21;101388.06;;;19.88;69.43
8699;BME280;4386;51.236;6.742;2022-08-02T02:45:27;101394.44;;;19.87;69.69
8699;BME280;4386;51.236;6.742;2022-08-02T02:46:32;101388.41;;;19.85;69.90
8699;BME280;4386;51.236;6.742;2022-08-02T02:47:34;101390.41;;;19.83;69.74
8699;BME280;4386;51.236;6.742;2022-08-02T02:48:42;101387.88;;;19.81;69.57
8699;BME280;4386;51.236;6.742;2022-08-02T02:49:45;101387.22;;;19.79;69.71
8699;BME280;4386;51.236;6.742;2022-08-02T02:50:49;101392.59;;;19.79;70.17
8699;BME280;4386;51.236;6.742;2022-08-02T02:51:51;101394.44;;;19.79;70.29
8699;BME280;4386;51.236;6.742;2022-08-02T02:52:56;101392.75;;;19.77;69.96
8699;BME280;4386;51.236;6.742;2022-08-02T02:53:59;101384.84;;;19.76;70.07
8699;BME280;4386;51.236;6.742;2022-08-02T02:55:22;101390.22;;;19.76;70.29
8699;BME280;4386;51.236;6.742;2022-08-02T02:56:25;101378.75;;;19.74;70.23
8699;BME280;4386;51.236;6.742;2022-08-02T02:57:28;101374.41;;;19.73;70.16
8699;BME280;4386;51.236;6.742;2022-08-02T02:58:31;101371.72;;;19.73;70.48
8699;BME280;4386;51.236;6.742;2022-08-02T02:59:34;101363.81;;;19.71;70.63
8699;BME280;4386;51.236;6.742;2022-08-02T03:00:51;101364.66;;;19.72;70.74
8699;BME280;4386;51.236;6.742;2022-08-02T03:02:12;101371.03;;;19.71;70.29
8699;BME280;4386;51.236;6.742;2022-08-02T03:03:15;101367.50;;;19.70;70.83
8699;BME280;4386;51.236;6.742;2022-08-02T03:04:23;101375.56;;;19.70;70.77
8699;BME280;4386;51.236;6.742;2022-08-02T03:05:26;101368.34;;;19.71;70.71
8699;BME280;4386;51.236;6.742;2022-08-02T03:06:28;101369.19;;;19.71;71.22
8699;BME280;4386;51.236;6.742;2022-08-02T03:07:32;101371.88;;;19.71;70.95
8699;BME280;4386;51.236;6.742;2022-08-02T03:08:35;101368.34;;;19.71;71.40
8699;BME280;4386;51.236;6.742;2022-08-02T03:09:37;101377.41;;;19.70;70.96
8699;BME280;4386;51.236;6.742;2022-08-02T03:10:41;101384.47;;;19.71;71.32
8699;BME280;4386;51.236;6.742;2022-08-02T03:11:44;101385.47;;;19.70;71.09
8699;BME280;4386;51.236;6.742;2022-08-02T03:12:47;101384.47;;;19.71;71.45
8699;BME280;4386;51.236;6.742;2022-08-02T03:13:50;101381.13;;;19.69;71.80
8699;BME280;4386;51.236;6.742;2022-08-02T03:14:54;101380.09;;;19.70;71.37
8699;BME280;4386;51.236;6.742;2022-08-02T03:15:59;101376.59;;;19.69;71.67
8699;BME280;4386;51.236;6.742;2022-08-02T03:17:01;101373.91;;;19.69;72.13
8699;BME280;4386;51.236;6.742;2022-08-02T03:18:03;101377.41;;;19.70;71.62
8699;BME280;4386;51.236;6.742;2022-08-02T03:19:08;101376.41;;;19.71;71.91
8699;BME280;4386;51.236;6.742;2022-08-02T03:20:12;101379.09;;;19.71;71.77
8699;BME280;4386;51.236;6.742;2022-08-02T03:21:15;101372.72;;;19.72;72.01
8699;BME280;4386;51.236;6.742;2022-08-02T03:22:17;101379.09;;;19.71;72.32
8699;BME280;4386;51.236;6.742;2022-08-02T03:23:19;101376.41;;;19.71;72.48
8699;BME280;4386;51.236;6.742;2022-08-02T03:24:21;101377.25;;;19.71;72.18
8699;BME280;4386;51.236;6.742;2022-08-02T03:25:29;101378.25;;;19.70;72.56
8699;BME280;4386;51.236;6.742;2022-08-02T03:26:30;101379.09;;;19.71;72.51
8699;BME280;4386;51.236;6.742;2022-08-02T03:27:33;101376.41;;;19.71;72.27
8699;BME280;4386;51.236;6.742;2022-08-02T03:28:35;101374.56;;;19.71;72.68
8699;BME280;4386;51.236;6.742;2022-08-02T03:29:37;101385.31;;;19.71;72.95
8699;BME280;4386;51.236;6.742;2022-08-02T03:30:39;101377.41;;;19.70;72.86
8699;BME280;4386;51.236;6.742;2022-08-02T03:31:44;101378.25;;;19.70;72.54
8699;BME280;4386;51.236;6.742;2022-08-02T03:32:47;101378.25;;;19.70;72.62
8699;BME280;4386;51.236;6.742;2022-08-02T03:33:50;101378.44;;;19.69;72.97
8699;BME280;4386;51.236;6.742;2022-08-02T03:34:53;101370.50;;;19.67;73.05
8699;BME280;4386;51.236;6.742;2022-08-02T03:35:58;101370.50;;;19.67;72.97
8699;BME280;4386;51.236;6.742;2022-08-02T03:37:02;101359.94;;;19.66;72.95
8699;BME280;4386;51.236;6.742;2022-08-02T03:38:05;101365.31;;;19.66;73.44
8699;BME280;4386;51.236;6.742;2022-08-02T03:39:08;101367.28;;;19.64;73.57
8699;BME280;4386;51.236;6.742;2022-08-02T03:40:12;101367.28;;;19.64;73.20
8699;BME280;4386;51.236;6.742;2022-08-02T03:41:16;101361.06;;;19.63;73.67
8699;BME280;4386;51.236;6.742;2022-08-02T03:42:20;101362.94;;;19.63;73.66
8699;BME280;4386;51.236;6.742;2022-08-02T03:43:24;101368.31;;;19.63;73.39
8699;BME280;4386;51.236;6.742;2022-08-02T03:44:30;101367.63;;;19.61;73.89
8699;BME280;4386;51.236;6.742;2022-08-02T03:45:32;101362.25;;;19.61;73.64
8699;BME280;4386;51.236;6.742;2022-08-02T03:46:36;101367.63;;;19.61;73.62
8699;BME280;4386;51.236;6.742;2022-08-02T03:47:42;101365.97;;;19.60;73.74
8699;BME280;4386;51.236;6.742;2022-08-02T03:48:49;101365.13;;;19.59;73.91
8699;BME280;4386;51.236;6.742;2022-08-02T03:49:52;101364.25;;;19.59;74.33
8699;BME280;4386;51.236;6.742;2022-08-02T03:50:56;101372.34;;;19.59;74.09
8699;BME280;4386;51.236;6.742;2022-08-02T03:51:59;101369.66;;;19.59;74.34
8699;BME280;4386;51.236;6.742;2022-08-02T03:53:03;101369.66;;;19.59;74.45
8699;BME280;4386;51.236;6.742;2022-08-02T03:54:05;101366.78;;;19.60;74.13
8699;BME280;4386;51.236;6.742;2022-08-02T03:55:08;101366.09;;;19.58;73.98
8699;BME280;4386;51.236;6.742;2022-08-02T03:56:12;101364.25;;;19.59;74.43
8699;BME280;4386;51.236;6.742;2022-08-02T03:57:15;101370.50;;;19.59;74.64
8699;BME280;4386;51.236;6.742;2022-08-02T03:58:18;101369.66;;;19.59;74.47
8699;BME280;4386;51.236;6.742;2022-08-02T03:59:21;101371.34;;;19.60;74.38
8699;BME280;4386;51.236;6.742;2022-08-02T04:00:23;101371.34;;;19.60;74.70
8699;BME280;4386;51.236;6.742;2022-08-02T04:01:26;101380.22;;;19.60;74.70
8699;BME280;4386;51.236;6.742;2022-08-02T04:02:29;101376.72;;;19.60;74.74
8699;BME280;4386;51.236;6.742;2022-08-02T04:03:33;101369.47;;;19.60;74.74
8699;BME280;4386;51.236;6.742;2022-08-02T04:04:37;101373.00;;;19.61;74.73
8699;BME280;4386;51.236;6.742;2022-08-02T04:05:40;101373.84;;;19.61;74.44
8699;BME280;4386;51.236;6.742;2022-08-02T04:07:03;101361.41;;;19.60;75.00
8699;BME280;4386;51.236;6.742;2022-08-02T04:08:08;101367.63;;;19.61;74.43
8699;BME280;4386;51.236;6.742;2022-08-02T04:09:30;101365.97;;;19.60;74.80
8699;BME280;4386;51.236;6.742;2022-08-02T04:10:33;101364.25;;;19.59;74.86
8699;BME280;4386;51.236;6.742;2022-08-02T04:11:55;101371.47;;;19.58;74.53
8699;BME280;4386;51.236;6.742;2022-08-02T04:12:57;101372.47;;;19.57;74.85
8699;BME280;4386;51.236;6.742;2022-08-02T04:14:01;101369.97;;;19.56;74.63
8699;BME280;4386;51.236;6.742;2022-08-02T04:15:04;101377.84;;;19.57;74.85
8699;BME280;4386;51.236;6.742;2022-08-02T04:16:12;101371.63;;;19.57;74.97
8699;BME280;4386;51.236;6.742;2022-08-02T04:17:16;101371.63;;;19.57;74.94
8699;BME280;4386;51.236;6.742;2022-08-02T04:18:24;101377.00;;;19.57;74.73
8699;BME280;4386;51.236;6.742;2022-08-02T04:19:32;101377.00;;;19.57;74.80
8699;BME280;4386;51.236;6.742;2022-08-02T04:20:37;101377.00;;;19.57;75.07
8699;BME280;4386;51.236;6.742;2022-08-02T04:21:41;101378.72;;;19.58;75.06
8699;BME280;4386;51.236;6.742;2022-08-02T04:22:56;101379.56;;;19.58;74.53
8699;BME280;4386;51.236;6.742;2022-08-02T04:24:01;101379.56;;;19.58;74.93
8699;BME280;4386;51.236;6.742;2022-08-02T04:25:07;101376.00;;;19.58;74.65
8699;BME280;4386;51.236;6.742;2022-08-02T04:26:18;101384.09;;;19.58;74.84
8699;BME280;4386;51.236;6.742;2022-08-02T04:27:29;101380.72;;;19.56;74.67
8699;BME280;4386;51.236;6.742;2022-08-02T04:28:52;101382.38;;;19.57;74.86
8699;BME280;4386;51.236;6.742;2022-08-02T04:29:56;101380.72;;;19.56;74.79
8699;BME280;4386;51.236;6.742;2022-08-02T04:30:59;101381.41;;;19.58;74.71
8699;BME280;4386;51.236;6.742;2022-08-02T04:32:02;101386.78;;;19.58;74.53
8699;BME280;4386;51.236;6.742;2022-08-02T04:33:06;101382.38;;;19.57;74.75
8699;BME280;4386;51.236;6.742;2022-08-02T04:34:09;101382.38;;;19.57;74.69
8699;BME280;4386;51.236;6.742;2022-08-02T04:35:17;101378.72;;;19.58;74.56
8699;BME280;4386;51.236;6.742;2022-08-02T04:36:21;101384.94;;;19.58;74.65
8699;BME280;4386;51.236;6.742;2022-08-02T04:37:32;101379.56;;;19.58;74.74
8699;BME280;4386;51.236;6.742;2022-08-02T04:38:35;101380.41;;;19.59;74.94
8699;BME280;4386;51.236;6.742;2022-08-02T04:39:39;101375.03;;;19.59;74.78
8699;BME280;4386;51.236;6.742;2022-08-02T04:40:49;101375.03;;;19.59;74.54
8699;BME280;4386;51.236;6.742;2022-08-02T04:41:52;101381.25;;;19.59;74.75
8699;BME280;4386;51.236;6.742;2022-08-02T04:42:58;101379.41;;;19.60;74.19
8699;BME280;4386;51.236;6.742;2022-08-02T04:44:01;101387.47;;;19.60;74.94
8699;BME280;4386;51.236;6.742;2022-08-02T04:45:04;101386.44;;;19.61;74.51
8699;BME280;4386;51.236;6.742;2022-08-02T04:46:07;101386.44;;;19.61;74.57
8699;BME280;4386;51.236;6.742;2022-08-02T04:47:08;101382.91;;;19.60;74.32
8699;BME280;4386;51.236;6.742;2022-08-02T04:48:11;101383.75;;;19.61;74.41
8699;BME280;4386;51.236;6.742;2022-08-02T04:49:13;101381.25;;;19.59;74.93
8699;BME280;4386;51.236;6.742;2022-08-02T04:50:17;101381.06;;;19.61;74.76
8699;BME280;4386;51.236;6.742;2022-08-02T04:51:21;101383.75;;;19.61;74.72
8699;BME280;4386;51.236;6.742;2022-08-02T04:52:38;101388.16;;;19.62;74.41
8699;BME280;4386;51.236;6.742;2022-08-02T04:53:46;101386.44;;;19.61;74.47
8699;BME280;4386;51.236;6.742;2022-08-02T04:54:49;101381.06;;;19.61;74.48
8699;BME280;4386;51.236;6.742;2022-08-02T04:55:51;101383.75;;;19.61;74.48
8699;BME280;4386;51.236;6.742;2022-08-02T04:56:54;101384.47;;;19.63;74.46
8699;BME280;4386;51.236;6.742;2022-08-02T04:57:57;101388.81;;;19.64;74.41
8699;BME280;4386;51.236;6.742;2022-08-02T04:59:00;101384.28;;;19.64;74.51
8699;BME280;4386;51.236;6.742;2022-08-02T05:00:04;101391.34;;;19.65;74.35
8699;BME280;4386;51.236;6.742;2022-08-02T05:01:11;101393.88;;;19.67;74.10
8699;BME280;4386;51.236;6.742;2022-08-02T05:02:13;101393.06;;;19.66;74.42
8699;BME280;4386;51.236;6.742;2022-08-02T05:03:15;101396.56;;;19.67;74.14
8699;BME280;4386;51.236;6.742;2022-08-02T05:04:17;101392.88;;;19.68;73.94
8699;BME280;4386;51.236;6.742;2022-08-02T05:05:21;101398.91;;;19.70;74.20
8699;BME280;4386;51.236;6.742;2022-08-02T05:06:23;101393.53;;;19.70;74.08
8699;BME280;4386;51.236;6.742;2022-08-02T05:07:25;101390.69;;;19.71;74.36
8699;BME280;4386;51.236;6.742;2022-08-02T05:08:36;101391.56;;;19.72;74.18
8699;BME280;4386;51.236;6.742;2022-08-02T05:09:39;101394.91;;;19.74;73.98
8699;BME280;4386;51.236;6.742;2022-08-02T05:10:40;101393.91;;;19.75;73.64
8699;BME280;4386;51.236;6.742;2022-08-02T05:11:43;101399.97;;;19.77;74.26
8699;BME280;4386;51.236;6.742;2022-08-02T05:12:55;101398.97;;;19.78;74.03
8699;BME280;4386;51.236;6.742;2022-08-02T05:13:58;101396.13;;;19.80;74.03
8699;BME280;4386;51.236;6.742;2022-08-02T05:15:00;101403.03;;;19.82;74.02
8699;BME280;4386;51.236;6.742;2022-08-02T05:16:03;101384.19;;;19.82;73.82
8699;BME280;4386;51.236;6.742;2022-08-02T05:17:05;101391.94;;;19.85;73.76
8699;BME280;4386;51.236;6.742;2022-08-02T05:18:07;101386.22;;;19.88;73.69
8699;BME280;4386;51.236;6.742;2022-08-02T05:19:10;101382.34;;;19.91;73.37
8699;BME280;4386;51.236;6.742;2022-08-02T05:20:12;101383.03;;;19.93;73.58
8699;BME280;4386;51.236;6.742;2022-08-02T05:21:16;101380.19;;;19.94;72.97
8699;BME280;4386;51.236;6.742;2022-08-02T05:22:19;101380.19;;;19.94;73.17
8699;BME280;4386;51.236;6.742;2022-08-02T05:23:20;101374.81;;;19.94;73.12
8699;BME280;4386;51.236;6.742;2022-08-02T05:24:23;101378.16;;;19.96;73.40
8699;BME280;4386;51.236;6.742;2022-08-02T05:25:25;101381.53;;;19.98;73.35
8699;BME280;4386;51.236;6.742;2022-08-02T05:26:28;101390.28;;;20.00;73.14
8699;BME280;4386;51.236;6.742;2022-08-02T05:27:29;101382.06;;;20.02;73.07
8699;BME280;4386;51.236;6.742;2022-08-02T05:28:33;101380.22;;;20.02;73.09
8699;BME280;4386;51.236;6.742;2022-08-02T05:29:37;101385.94;;;20.07;72.92
8699;BME280;4386;51.236;6.742;2022-08-02T05:30:53;101381.91;;;20.11;72.53
8699;BME280;4386;51.236;6.742;2022-08-02T05:31:56;101378.72;;;20.16;72.51
8699;BME280;4386;51.236;6.742;2022-08-02T05:32:57;101380.56;;;20.23;72.86
8699;BME280;4386;51.236;6.742;2022-08-02T05:34:00;101379.94;;;20.30;72.42
8699;BME280;4386;51.236;6.742;2022-08-02T05:35:02;101383.00;;;20.35;72.02
8699;BME280;4386;51.236;6.742;2022-08-02T05:36:05;101392.25;;;20.40;72.01
8699;BME280;4386;51.236;6.742;2022-08-02T05:37:08;101385.34;;;20.46;71.88
8699;BME280;4386;51.236;6.742;2022-08-02T05:38:13;101385.69;;;20.51;71.63
8699;BME280;4386;51.236;6.742;2022-08-02T05:39:16;101390.41;;;20.57;71.60
8699;BME280;4386;51.236;6.742;2022-08-02T05:40:19;101389.72;;;20.63;71.11
8699;BME280;4386;51.236;6.742;2022-08-02T05:41:26;101382.66;;;20.70;71.39
8699;BME280;4386;51.236;6.742;2022-08-02T05:42:30;101389.06;;;20.77;71.24
8699;BME280;4386;51.236;6.742;2022-08-02T05:43:33;101390.22;;;20.83;70.81
8699;BME280;4386;51.236;6.742;2022-08-02T05:44:35;101394.28;;;20.87;70.61
8699;BME280;4386;51.236;6.742;2022-08-02T05:45:37;101390.38;;;20.89;70.58
8699;BME280;4386;51.236;6.742;2022-08-02T05:46:40;101394.59;;;20.92;70.05
8699;BME280;4386;51.236;6.742;2022-08-02T05:47:41;101399.81;;;20.93;70.04
8699;BME280;4386;51.236;6.742;2022-08-02T05:48:44;101396.09;;;20.94;69.79
8699;BME280;4386;51.236;6.742;2022-08-02T05:49:46;101392.41;;;20.95;70.01
8699;BME280;4386;51.236;6.742;2022-08-02T05:50:53;101391.41;;;20.96;69.81